• Join FlightAware (Why Join?)
  • Login
  • US Flag GB Flag 
18:33 EDT


 

Airport Tracker/Info


-or-


 

Live Flight TrackerFlight Track Log ✈ RPA3392 ✈ 08-May-2013 ✈ KDCA - KALB

Flight Track Log - Related Links

Times and Time Zones

All times are in EDT time to prevent confusion due to time zone crossing. See the RPA3392 flight status page for this flight to view local times or setup timezone preferences in your user account.

Time Position Orientation Groundspeed Altitude Reporting Facility
EDT Latitude Longitude Course Direction KTS MPH feet Rate Location/Type
00:32 38.8167 -77.0333 180° South 214 246 1,300  Level Potomac TRACON
00:33 38.7667 -77.0333 180° South 193 222 2,900 2,100 Climbing Potomac TRACON
00:34 38.7667 -76.9667 90° East 237 273 5,400 2,280 Climbing Potomac TRACON
00:36 38.8861 -76.8292 42° Northeast 272 313 10,400 1,920 Climbing Washington Center
00:37 38.9722 -76.7664 30° Northeast 314 361 11,800 1,740 Climbing Washington Center
00:38 39.0336 -76.6631 53° Northeast 351 404 13,900 2,100 Climbing Washington Center
00:39 39.0703 -76.5300 70° East 358 412 16,100 2,100 Climbing Washington Center
00:40 39.1044 -76.3942 72° East 380 437 18,100 1,920 Climbing Washington Center
00:41 39.1511 -76.2608 66° East 397 457 19,900 2,100 Climbing Washington Center
00:42 39.2289 -76.1436 49° Northeast 420 483 22,300 1,920 Climbing Washington Center
00:43 39.3003 -76.0261 52° Northeast 415 478 23,800 1,800 Climbing Washington Center
00:44 39.3714 -75.9083 52° Northeast 415 478 25,900 1,500 Climbing Washington Center
00:45 39.4425 -75.7878 53° Northeast 415 478 26,900 960 Climbing Washington Center
00:46 39.5197 -75.6669 50° Northeast 421 484 27,900 1,440 Climbing Washington Center
00:47 39.5947 -75.5378 53° Northeast 433 498 29,800 1,500 Climbing Washington Center
00:48 39.6656 -75.4136 53° Northeast 438 504 30,900 540 Climbing Washington Center
00:49 39.7422 -75.2839 52° Northeast 445 512 31,000  Climbing Washington Center
00:50 39.8314 -75.1375 52° Northeast 460 529 31,000  Level Washington Center
00:51 39.8617 -75.0817 55° Northeast 470 541 31,000  Level New York Center
00:52 39.9372 -74.9508 53° Northeast 480 552 31,000  Level New York Center
00:53 40.0356 -74.8214 45° Northeast 496 571 31,000  Level New York Center
00:54 40.1314 -74.6992 44° Northeast 496 571 31,000  Level New York Center
00:55 40.2425 -74.5561 44° Northeast 490 564 31,000  Level New York Center
00:57 40.4831 -74.2517 44° Northeast 497 572 31,000 -600 Level Boston Center
00:58 40.5789 -74.1286 44° Northeast 485 558 29,000 -2,160 Descending Boston Center
00:59 40.6636 -74.0269 42° Northeast 471 542 26,700 -2,400 Descending Boston Center
01:00 40.7547 -73.9114 44° Northeast 456 525 24,300 -1,380 Descending Boston Center
01:01 40.8458 -73.7981 43° Northeast 450 518 24,000 -660 Descending Boston Center
01:02 40.9494 -73.6683 43° Northeast 450 518 23,000 -600 Descending Boston Center
01:03 41.0708 -73.6239 15° North 440 506 22,900  Descending Boston Center
01:04 41.2019 -73.6347 356° North 440 506 23,000  Climbing Boston Center
01:05 41.3331 -73.6508 355° North 447 514 23,000 -180 Level Boston Center
01:06 41.4622 -73.6644 355° North 458 527 22,700 -1,440 Descending Boston Center
01:07 41.5892 -73.6781 355° North 463 533 20,200 -2,400 Descending Boston Center
01:08 41.7119 -73.6914 355° North 452 520 18,000 -2,400 Descending Boston Center
01:09 41.8306 -73.7050 355° North 431 496 15,500 -2,280 Descending Boston Center
01:10 41.9450 -73.7183 355° North 420 483 13,500 -2,160 Descending Boston Center
01:11 42.0556 -73.7292 356° North 405 466 11,200 -1,680 Descending Boston Center
01:11 42.1117 -73.7331 357° North 388 447 11,000 -240 Descending Boston Center
01:12 42.1553 -73.7367 356° North 394 453 11,000  Level Boston Center
01:13 42.2303 -73.7494 353° North 392 451 11,000 -120 Level Boston Center
01:13 42.2742 -73.7506 359° North 394 453 10,900 -1,380 Descending Boston Center
01:14 42.3447 -73.7631 353° North 384 442 9,600 -1,440 Descending Boston Center
01:15 42.4364 -73.7678 358° North 325 374 8,600 -1,320 Descending Boston Center
01:16 42.5219 -73.7583 North 295 339 7,000 -1,620 Descending Boston Center
01:17 42.6056 -73.7517 North 294 338 5,400 -1,800 Descending Boston Center
01:18 42.6825 -73.7422 North 283 326 3,400 -1,440 Descending Boston Center
01:19 42.7556 -73.7353 North 258 297 2,500 -900 Descending Boston Center
01:20 42.8158 -73.7533 348° North 202 232 1,700 -600 Descending Boston Center
01:21 42.8006 -73.8069 249° West 139 160 1,300 -600 Descending Boston Center
01:22 42.7653 -73.8061 179° South 106 122 500 -840 Descending Boston Center